D/T METAR WX W/DIR W/SPE G/SPE TEMP DEWP
7/12/19 20:50 EGTE 072050Z 20017KT 9999 BKN018 11/09 Q1009 SSW (200°) 19.6mph 11°C 9°C
7/12/19 20:20 EGTE 072020Z 20018KT 9999 BKN018 11/09 Q1010 SSW (200°) 20.7mph 11°C 9°C
7/12/19 19:50 EGTE 071950Z 21016G26KT 9999 BKN013 10/09 Q1011 SSW (210°) 18.4mph 29.9mph 10°C 9°C
7/12/19 18:50 EGTE 071850Z 18010KT 150V210 9999 BKN015 11/09 Q1011 S (180°) 11.5mph 11°C 9°C
7/12/19 18:20 EGTE 071820Z 20015KT 9999 BKN015 11/08 Q1012 SSW (200°) 17.3mph 11°C 8°C
7/12/19 17:50 EGTE 071750Z 19008KT 9999 BKN018 10/08 Q1012 S (190°) 9.2mph 10°C 8°C
7/12/19 17:20 EGTE 071720Z 21006KT 150V280 9999 BKN018 10/08 Q1013 SSW (210°) 6.9mph 10°C 8°C
7/12/19 16:50 EGTE 071650Z 20005KT 9999 BKN018 10/08 Q1013 SSW (200°) 5.8mph 10°C 8°C
7/12/19 16:20 EGTE 071620Z 22008KT 9999 BKN020 10/07 Q1013 SW (220°) 9.2mph 10°C 7°C
7/12/19 15:20 EGTE 071520Z 21007KT 9999 BKN020 11/08 Q1014 SSW (210°) 8.1mph 11°C 8°C
7/12/19 14:50 EGTE 071450Z 21008KT 9999 BKN023 10/07 Q1014 SSW (210°) 9.2mph 10°C 7°C
7/12/19 14:20 EGTE 071420Z 22008KT 9999 BKN023 11/08 Q1014 SW (220°) 9.2mph 11°C 8°C
7/12/19 13:20 EGTE 071320Z 22009KT 9999 BKN020 11/08 Q1014 SW (220°) 10.4mph 11°C 8°C
7/12/19 12:50 EGTE 071250Z 24005KT 9999 BKN018 10/08 Q1014 WSW (240°) 5.8mph 10°C 8°C
7/12/19 12:20 EGTE 071220Z 22007KT 9999 FEW020 SCT030 10/08 Q1015 SW (220°) 8.1mph 10°C 8°C
7/12/19 11:50 EGTE 071150Z 22008KT 9999 FEW020 SCT030 10/08 Q1015 SW (220°) 9.2mph 10°C 8°C
7/12/19 11:20 EGTE 071120Z 20007KT 9999 FEW020 SCT030 11/08 Q1015 SSW (200°) 8.1mph 11°C 8°C
7/12/19 10:50 EGTE 071050Z 19005KT 9999 VCSH SCT028 10/08 Q1016 VCSH S (190°) 5.8mph 10°C 8°C
7/12/19 10:20 EGTE 071020Z 17005KT 9999 VCSH SCT028 09/08 Q1016 VCSH S (170°) 5.8mph 9°C 8°C
7/12/19 09:50 EGTE 070950Z 21006KT 9999 SCT028 08/07 Q1015 SSW (210°) 6.9mph 8°C 7°C
7/12/19 09:20 EGTE 070920Z 19005KT 9999 BKN030 08/07 Q1016 S (190°) 5.8mph 8°C 7°C
7/12/19 08:50 EGTE 070850Z 16005KT 9999 SCT030 06/05 Q1016 SSE (160°) 5.8mph 6°C 5°C
7/12/19 08:20 EGTE 070820Z VRB03KT CAVOK 08/06 Q1016 N (0°) 3.5mph 8°C 6°C
7/12/19 07:50 EGTE 070750Z 22002KT 9999 FEW040 07/05 Q1015 SW (220°) 2.3mph 7°C 5°C
7/12/19 07:20 EGTE 070720Z 20004KT 9999 BKN030 08/06 Q1015 SSW (200°) 4.6mph 8°C 6°C
7/12/19 06:50 EGTE 070650Z 21006KT 9999 BKN030 09/07 Q1015 SSW (210°) 6.9mph 9°C 7°C
7/12/19 06:20 EGTE 070620Z 20005KT 9999 FEW023 BKN030 09/07 Q1015 SSW (200°) 5.8mph 9°C 7°C
7/12/19 03:20 EGTE 070320Z 24005KT 9999 FEW023 BKN040 09/07 Q1013 WSW (240°) 5.8mph 9°C 7°C
7/12/19 02:50 EGTE 070250Z 23006KT 9999 FEW023 BKN040 10/08 Q1013 SW (230°) 6.9mph 10°C 8°C
7/12/19 02:20 EGTE 070220Z 22004KT 200V260 9999 BKN040 08/06 Q1013 SW (220°) 4.6mph 8°C 6°C
7/12/19 01:50 EGTE 070150Z 25007KT 230V290 9999 BKN040 08/06 Q1013 WSW (250°) 8.1mph 8°C 6°C
7/12/19 00:20 EGTE 070020Z 24008KT 9999 BKN040 09/07 Q1013 WSW (240°) 9.2mph 9°C 7°C
6/12/19 23:50 EGTE 062350Z 25007KT 220V280 9999 SCT035 09/06 Q1012 WSW (250°) 8.1mph 9°C 6°C
6/12/19 23:20 EGTE 062320Z 27007KT 240V300 9999 SCT035 11/07 Q1012 W (270°) 8.1mph 11°C 7°C
6/12/19 22:20 EGTE 062220Z 24008KT 9999 FEW015 BKN037 09/06 Q1012 WSW (240°) 9.2mph 9°C 6°C
6/12/19 21:50 EGTE 062150Z 25010KT 9999 FEW015 BKN037 10/07 Q1011 WSW (250°) 11.5mph 10°C 7°C
6/12/19 21:20 EGTE 062120Z 26009KT 230V300 9999 FEW015 BKN037 10/08 Q1011 W (260°) 10.4mph 10°C 8°C
6/12/19 20:50 EGTE 062050Z 27008KT 240V300 9999 FEW015 SCT040 10/08 Q1010 W (270°) 9.2mph 10°C 8°C
6/12/19 20:20 EGTE 062020Z 26007KT 230V290 9999 FEW015 SCT035 10/08 Q1010 W (260°) 8.1mph 10°C 8°C
6/12/19 19:50 EGTE 061950Z 27006KT 230V310 9999 FEW015 SCT020 09/08 Q1010 W (270°) 6.9mph 9°C 8°C
6/12/19 19:20 EGTE 061920Z 28008KT 240V300 9000 -RA FEW012 BKN020 09/08 Q1009 RERA -RA W (280°) 9.2mph 9°C 8°C
6/12/19 18:50 EGTE 061850Z 27008KT 9999 DZ SCT020 10/08 Q1009 DZ W (270°) 9.2mph 10°C 8°C
6/12/19 18:20 EGTE 061820Z 27009KT 240V300 9999 FEW020 10/08 Q1008 W (270°) 10.4mph 10°C 8°C
6/12/19 17:20 EGTE 061720Z 27009KT 240V300 9999 FEW015 10/08 Q1007 W (270°) 10.4mph 10°C 8°C
6/12/19 16:50 EGTE 061650Z 26012KT 230V300 9999 FEW012 10/08 Q1006 W (260°) 13.8mph 10°C 8°C
6/12/19 16:20 EGTE 061620Z 27013G24KT 240V310 9999 FEW012 11/08 Q1006 W (270°) 15.0mph 27.6mph 11°C 8°C
6/12/19 15:50 EGTE 061550Z 27013G23KT 240V300 9999 FEW010 SCT030 11/09 Q1006 W (270°) 15.0mph 26.5mph 11°C 9°C
6/12/19 14:50 EGTE 061450Z 25011KT 9999 -SHRA SCT010 11/10 Q1005 -SHRA WSW (250°) 12.7mph 11°C 10°C